sensor_id;sensor_type;location;lat;lon;timestamp;temperature;humidity
22698;DHT22;11516;51.612;7.510;2022-09-09T00:01:51;15.50;99.90
22698;DHT22;11516;51.612;7.510;2022-09-09T00:09:35;15.30;99.90
22698;DHT22;11516;51.612;7.510;2022-09-09T00:12:06;15.20;99.90
22698;DHT22;11516;51.612;7.510;2022-09-09T00:14:41;15.20;99.90
22698;DHT22;11516;51.612;7.510;2022-09-09T00:17:18;15.20;99.90
22698;DHT22;11516;51.612;7.510;2022-09-09T00:19:57;15.20;99.90
22698;DHT22;11516;51.612;7.510;2022-09-09T00:22:28;15.20;99.90
22698;DHT22;11516;51.612;7.510;2022-09-09T00:25:02;15.20;99.90
22698;DHT22;11516;51.612;7.510;2022-09-09T00:27:41;15.20;99.90
22698;DHT22;11516;51.612;7.510;2022-09-09T00:30:25;15.30;99.90
22698;DHT22;11516;51.612;7.510;2022-09-09T00:32:55;15.30;99.90
22698;DHT22;11516;51.612;7.510;2022-09-09T00:35:24;15.30;99.90
22698;DHT22;11516;51.612;7.510;2022-09-09T00:37:54;15.30;99.90
22698;DHT22;11516;51.612;7.510;2022-09-09T00:40:34;15.30;99.90
22698;DHT22;11516;51.612;7.510;2022-09-09T00:43:18;15.30;99.90
22698;DHT22;11516;51.612;7.510;2022-09-09T00:45:56;15.30;99.90
22698;DHT22;11516;51.612;7.510;2022-09-09T00:49:14;15.30;99.90
22698;DHT22;11516;51.612;7.510;2022-09-09T00:53:59;15.40;99.90
22698;DHT22;11516;51.612;7.510;2022-09-09T01:01:56;15.20;99.90
22698;DHT22;11516;51.612;7.510;2022-09-09T01:04:34;15.30;99.90
22698;DHT22;11516;51.612;7.510;2022-09-09T01:07:14;15.30;99.90
22698;DHT22;11516;51.612;7.510;2022-09-09T01:09:58;15.20;99.90
22698;DHT22;11516;51.612;7.510;2022-09-09T01:12:42;15.20;99.90
22698;DHT22;11516;51.612;7.510;2022-09-09T01:15:21;15.20;99.90
22698;DHT22;11516;51.612;7.510;2022-09-09T01:18:10;15.10;99.90
22698;DHT22;11516;51.612;7.510;2022-09-09T01:20:39;15.10;99.90
22698;DHT22;11516;51.612;7.510;2022-09-09T01:23:32;15.10;99.90
22698;DHT22;11516;51.612;7.510;2022-09-09T01:28:46;15.20;99.90
22698;DHT22;11516;51.612;7.510;2022-09-09T01:31:17;15.20;99.90
22698;DHT22;11516;51.612;7.510;2022-09-09T01:33:43;15.20;99.90
22698;DHT22;11516;51.612;7.510;2022-09-09T01:36:34;15.20;99.90
22698;DHT22;11516;51.612;7.510;2022-09-09T01:39:04;15.20;99.90
22698;DHT22;11516;51.612;7.510;2022-09-09T01:41:30;15.20;99.90
22698;DHT22;11516;51.612;7.510;2022-09-09T01:43:56;15.20;99.90
22698;DHT22;11516;51.612;7.510;2022-09-09T01:46:22;15.20;99.90
22698;DHT22;11516;51.612;7.510;2022-09-09T01:48:50;15.20;99.90
22698;DHT22;11516;51.612;7.510;2022-09-09T01:51:16;15.20;99.90
22698;DHT22;11516;51.612;7.510;2022-09-09T01:53:43;15.20;99.90
22698;DHT22;11516;51.612;7.510;2022-09-09T01:59:03;15.10;99.90
22698;DHT22;11516;51.612;7.510;2022-09-09T02:04:35;15.10;99.90
22698;DHT22;11516;51.612;7.510;2022-09-09T02:07:01;15.10;99.90
22698;DHT22;11516;51.612;7.510;2022-09-09T02:09:29;15.10;99.90
22698;DHT22;11516;51.612;7.510;2022-09-09T02:12:11;15.10;99.90
22698;DHT22;11516;51.612;7.510;2022-09-09T02:14:41;15.20;99.90
22698;DHT22;11516;51.612;7.510;2022-09-09T02:17:14;15.10;99.90
22698;DHT22;11516;51.612;7.510;2022-09-09T02:19:47;15.20;99.90
22698;DHT22;11516;51.612;7.510;2022-09-09T02:22:17;15.20;99.90
22698;DHT22;11516;51.612;7.510;2022-09-09T02:24:44;15.20;99.90
22698;DHT22;11516;51.612;7.510;2022-09-09T02:27:12;15.20;99.90
22698;DHT22;11516;51.612;7.510;2022-09-09T02:29:40;15.20;99.90
22698;DHT22;11516;51.612;7.510;2022-09-09T02:32:14;15.30;99.90
22698;DHT22;11516;51.612;7.510;2022-09-09T02:34:45;15.30;99.90
22698;DHT22;11516;51.612;7.510;2022-09-09T02:37:15;15.30;99.90
22698;DHT22;11516;51.612;7.510;2022-09-09T02:39:41;15.30;99.90
22698;DHT22;11516;51.612;7.510;2022-09-09T02:42:07;15.30;99.90
22698;DHT22;11516;51.612;7.510;2022-09-09T02:44:34;15.30;99.90
22698;DHT22;11516;51.612;7.510;2022-09-09T02:47:20;15.20;99.90
22698;DHT22;11516;51.612;7.510;2022-09-09T02:55:52;15.20;99.90
22698;DHT22;11516;51.612;7.510;2022-09-09T02:58:21;15.20;99.90
22698;DHT22;11516;51.612;7.510;2022-09-09T03:00:49;15.30;99.90
22698;DHT22;11516;51.612;7.510;2022-09-09T03:03:17;15.30;99.90
22698;DHT22;11516;51.612;7.510;2022-09-09T03:05:43;15.30;99.90
22698;DHT22;11516;51.612;7.510;2022-09-09T03:08:09;15.30;99.90
22698;DHT22;11516;51.612;7.510;2022-09-09T03:10:35;15.30;99.90
22698;DHT22;11516;51.612;7.510;2022-09-09T03:13:02;15.30;99.90
22698;DHT22;11516;51.612;7.510;2022-09-09T03:15:29;15.30;99.90
22698;DHT22;11516;51.612;7.510;2022-09-09T03:17:57;15.30;99.90
22698;DHT22;11516;51.612;7.510;2022-09-09T03:20:24;15.30;99.90
22698;DHT22;11516;51.612;7.510;2022-09-09T03:22:51;15.30;99.90
22698;DHT22;11516;51.612;7.510;2022-09-09T03:25:17;15.20;99.90
22698;DHT22;11516;51.612;7.510;2022-09-09T03:27:43;15.20;99.90
22698;DHT22;11516;51.612;7.510;2022-09-09T03:30:09;15.30;99.90
22698;DHT22;11516;51.612;7.510;2022-09-09T03:32:35;15.20;99.90
22698;DHT22;11516;51.612;7.510;2022-09-09T03:35:00;15.20;99.90
22698;DHT22;11516;51.612;7.510;2022-09-09T03:37:26;15.20;99.90
22698;DHT22;11516;51.612;7.510;2022-09-09T03:39:51;15.10;99.90
22698;DHT22;11516;51.612;7.510;2022-09-09T03:42:19;15.20;99.90
22698;DHT22;11516;51.612;7.510;2022-09-09T03:44:46;15.20;99.90
22698;DHT22;11516;51.612;7.510;2022-09-09T03:47:19;15.20;99.90
22698;DHT22;11516;51.612;7.510;2022-09-09T03:49:45;15.20;99.90
22698;DHT22;11516;51.612;7.510;2022-09-09T03:52:12;15.20;99.90
22698;DHT22;11516;51.612;7.510;2022-09-09T03:54:37;15.20;99.90
22698;DHT22;11516;51.612;7.510;2022-09-09T03:57:03;15.30;99.90
22698;DHT22;11516;51.612;7.510;2022-09-09T03:59:30;15.30;99.90
22698;DHT22;11516;51.612;7.510;2022-09-09T04:01:55;15.30;99.90
22698;DHT22;11516;51.612;7.510;2022-09-09T04:04:22;15.20;99.90
22698;DHT22;11516;51.612;7.510;2022-09-09T04:06:48;15.20;99.90
22698;DHT22;11516;51.612;7.510;2022-09-09T04:09:14;15.20;99.90
22698;DHT22;11516;51.612;7.510;2022-09-09T04:11:40;15.30;99.90
22698;DHT22;11516;51.612;7.510;2022-09-09T04:14:05;15.30;99.90
22698;DHT22;11516;51.612;7.510;2022-09-09T04:16:34;15.30;99.90
22698;DHT22;11516;51.612;7.510;2022-09-09T04:19:02;15.30;99.90
22698;DHT22;11516;51.612;7.510;2022-09-09T04:21:30;15.30;99.90
22698;DHT22;11516;51.612;7.510;2022-09-09T04:23:55;15.30;99.90
22698;DHT22;11516;51.612;7.510;2022-09-09T04:26:21;15.30;99.90
22698;DHT22;11516;51.612;7.510;2022-09-09T04:28:47;15.30;99.90
22698;DHT22;11516;51.612;7.510;2022-09-09T04:31:18;15.40;99.90
22698;DHT22;11516;51.612;7.510;2022-09-09T04:33:45;15.30;99.90
22698;DHT22;11516;51.612;7.510;2022-09-09T04:36:12;15.30;99.90
22698;DHT22;11516;51.612;7.510;2022-09-09T04:38:38;15.30;99.90
22698;DHT22;11516;51.612;7.510;2022-09-09T04:41:05;15.30;99.90
22698;DHT22;11516;51.612;7.510;2022-09-09T04:43:30;15.30;99.90
22698;DHT22;11516;51.612;7.510;2022-09-09T04:45:56;15.30;99.90
22698;DHT22;11516;51.612;7.510;2022-09-09T04:48:22;15.30;99.90
22698;DHT22;11516;51.612;7.510;2022-09-09T04:51:14;15.40;99.90
22698;DHT22;11516;51.612;7.510;2022-09-09T04:53:39;15.40;99.90
22698;DHT22;11516;51.612;7.510;2022-09-09T04:56:14;15.40;99.90
22698;DHT22;11516;51.612;7.510;2022-09-09T04:58:40;15.50;99.90
22698;DHT22;11516;51.612;7.510;2022-09-09T05:01:21;15.50;99.90
22698;DHT22;11516;51.612;7.510;2022-09-09T05:03:48;15.50;99.90
22698;DHT22;11516;51.612;7.510;2022-09-09T05:06:15;15.60;99.90
22698;DHT22;11516;51.612;7.510;2022-09-09T05:08:44;15.50;99.90
22698;DHT22;11516;51.612;7.510;2022-09-09T05:11:21;15.40;99.90
22698;DHT22;11516;51.612;7.510;2022-09-09T05:13:48;15.40;99.90
22698;DHT22;11516;51.612;7.510;2022-09-09T05:16:25;15.40;99.90
22698;DHT22;11516;51.612;7.510;2022-09-09T05:18:51;15.40;99.90
22698;DHT22;11516;51.612;7.510;2022-09-09T05:21:18;15.40;99.90
22698;DHT22;11516;51.612;7.510;2022-09-09T05:23:45;15.40;99.90
22698;DHT22;11516;51.612;7.510;2022-09-09T05:26:14;15.40;99.90
22698;DHT22;11516;51.612;7.510;2022-09-09T05:28:45;15.40;99.90
22698;DHT22;11516;51.612;7.510;2022-09-09T05:34:22;15.40;99.90
22698;DHT22;11516;51.612;7.510;2022-09-09T05:36:48;15.60;99.90
22698;DHT22;11516;51.612;7.510;2022-09-09T05:39:16;15.60;99.90
22698;DHT22;11516;51.612;7.510;2022-09-09T05:41:58;15.60;99.90
22698;DHT22;11516;51.612;7.510;2022-09-09T05:44:23;15.60;99.90
22698;DHT22;11516;51.612;7.510;2022-09-09T05:46:55;15.70;99.90
22698;DHT22;11516;51.612;7.510;2022-09-09T05:49:26;15.70;99.90
22698;DHT22;11516;51.612;7.510;2022-09-09T05:51:51;15.90;99.90
22698;DHT22;11516;51.612;7.510;2022-09-09T05:54:18;15.80;99.90
22698;DHT22;11516;51.612;7.510;2022-09-09T05:56:44;15.80;99.90
22698;DHT22;11516;51.612;7.510;2022-09-09T05:59:09;15.80;99.90
22698;DHT22;11516;51.612;7.510;2022-09-09T06:01:36;15.80;99.90
22698;DHT22;11516;51.612;7.510;2022-09-09T06:04:05;15.70;99.90
22698;DHT22;11516;51.612;7.510;2022-09-09T06:06:34;15.70;99.90
22698;DHT22;11516;51.612;7.510;2022-09-09T06:09:03;15.80;99.90
22698;DHT22;11516;51.612;7.510;2022-09-09T06:11:32;15.90;99.90
22698;DHT22;11516;51.612;7.510;2022-09-09T06:13:58;15.90;99.90
22698;DHT22;11516;51.612;7.510;2022-09-09T06:16:26;15.90;99.90
22698;DHT22;11516;51.612;7.510;2022-09-09T06:18:55;16.00;99.90
22698;DHT22;11516;51.612;7.510;2022-09-09T06:21:27;16.00;99.90
22698;DHT22;11516;51.612;7.510;2022-09-09T06:23:52;16.10;99.90
22698;DHT22;11516;51.612;7.510;2022-09-09T06:26:20;16.10;99.90
22698;DHT22;11516;51.612;7.510;2022-09-09T06:28:48;16.20;99.90
22698;DHT22;11516;51.612;7.510;2022-09-09T06:31:23;16.20;99.90
22698;DHT22;11516;51.612;7.510;2022-09-09T06:33:50;16.20;99.90
22698;DHT22;11516;51.612;7.510;2022-09-09T06:36:19;16.30;99.90
22698;DHT22;11516;51.612;7.510;2022-09-09T06:38:45;16.40;99.90
22698;DHT22;11516;51.612;7.510;2022-09-09T06:41:13;16.40;99.90
22698;DHT22;11516;51.612;7.510;2022-09-09T06:43:39;16.40;99.90
22698;DHT22;11516;51.612;7.510;2022-09-09T06:46:08;16.50;99.90
22698;DHT22;11516;51.612;7.510;2022-09-09T06:48:35;16.40;99.90
22698;DHT22;11516;51.612;7.510;2022-09-09T06:53:27;16.50;99.90
22698;DHT22;11516;51.612;7.510;2022-09-09T06:55:52;16.70;99.90
22698;DHT22;11516;51.612;7.510;2022-09-09T06:58:18;16.70;99.90
22698;DHT22;11516;51.612;7.510;2022-09-09T07:00:44;16.70;99.90
22698;DHT22;11516;51.612;7.510;2022-09-09T07:03:10;16.80;99.90
22698;DHT22;11516;51.612;7.510;2022-09-09T07:05:36;16.90;99.90
22698;DHT22;11516;51.612;7.510;2022-09-09T07:08:02;17.00;99.90
22698;DHT22;11516;51.612;7.510;2022-09-09T07:10:31;17.00;99.90
22698;DHT22;11516;51.612;7.510;2022-09-09T07:12:57;17.10;99.90
22698;DHT22;11516;51.612;7.510;2022-09-09T07:15:22;17.20;99.90
22698;DHT22;11516;51.612;7.510;2022-09-09T07:17:48;17.10;99.90
22698;DHT22;11516;51.612;7.510;2022-09-09T07:20:37;17.20;99.90
22698;DHT22;11516;51.612;7.510;2022-09-09T07:23:16;17.20;99.90
22698;DHT22;11516;51.612;7.510;2022-09-09T07:26:02;17.30;99.90
22698;DHT22;11516;51.612;7.510;2022-09-09T07:32:51;17.40;99.90
22698;DHT22;11516;51.612;7.510;2022-09-09T07:39:16;17.40;99.90
22698;DHT22;11516;51.612;7.510;2022-09-09T07:42:11;17.40;99.90
22698;DHT22;11516;51.612;7.510;2022-09-09T07:44:44;17.70;99.90
22698;DHT22;11516;51.612;7.510;2022-09-09T07:48:00;17.70;99.90
22698;DHT22;11516;51.612;7.510;2022-09-09T07:57:35;17.60;99.90
22698;DHT22;11516;51.612;7.510;2022-09-09T08:00:29;17.90;99.90
22698;DHT22;11516;51.612;7.510;2022-09-09T08:03:19;17.90;99.90
22698;DHT22;11516;51.612;7.510;2022-09-09T08:05:52;18.10;99.90
22698;DHT22;11516;51.612;7.510;2022-09-09T08:08:27;18.10;99.90
22698;DHT22;11516;51.612;7.510;2022-09-09T08:11:10;18.20;99.90
22698;DHT22;11516;51.612;7.510;2022-09-09T08:13:41;18.30;99.90
22698;DHT22;11516;51.612;7.510;2022-09-09T08:19:30;18.40;99.90
22698;DHT22;11516;51.612;7.510;2022-09-09T08:22:05;18.60;99.90
22698;DHT22;11516;51.612;7.510;2022-09-09T08:24:31;18.70;99.90
22698;DHT22;11516;51.612;7.510;2022-09-09T08:27:05;18.80;99.90
22698;DHT22;11516;51.612;7.510;2022-09-09T08:29:49;18.80;99.90
22698;DHT22;11516;51.612;7.510;2022-09-09T08:32:33;18.70;99.90
22698;DHT22;11516;51.612;7.510;2022-09-09T08:38:09;18.80;99.90
22698;DHT22;11516;51.612;7.510;2022-09-09T08:40:45;18.90;99.90
22698;DHT22;11516;51.612;7.510;2022-09-09T08:43:40;19.10;99.90
22698;DHT22;11516;51.612;7.510;2022-09-09T08:46:17;19.20;99.90
22698;DHT22;11516;51.612;7.510;2022-09-09T08:48:58;19.30;99.90
22698;DHT22;11516;51.612;7.510;2022-09-09T08:51:32;19.30;99.90
22698;DHT22;11516;51.612;7.510;2022-09-09T08:54:10;19.30;99.90
22698;DHT22;11516;51.612;7.510;2022-09-09T08:56:46;19.30;99.90
22698;DHT22;11516;51.612;7.510;2022-09-09T08:59:18;19.30;99.90
22698;DHT22;11516;51.612;7.510;2022-09-09T09:02:04;19.40;99.90
22698;DHT22;11516;51.612;7.510;2022-09-09T09:04:41;19.40;99.90
22698;DHT22;11516;51.612;7.510;2022-09-09T09:07:32;19.30;99.90
22698;DHT22;11516;51.612;7.510;2022-09-09T09:12:43;19.20;99.90
22698;DHT22;11516;51.612;7.510;2022-09-09T09:15:40;19.30;99.90
22698;DHT22;11516;51.612;7.510;2022-09-09T09:18:10;19.50;99.90
22698;DHT22;11516;51.612;7.510;2022-09-09T09:23:39;19.50;99.90
22698;DHT22;11516;51.612;7.510;2022-09-09T09:26:13;19.50;99.90
22698;DHT22;11516;51.612;7.510;2022-09-09T09:28:52;19.70;99.90
22698;DHT22;11516;51.612;7.510;2022-09-09T09:31:28;19.90;99.90
22698;DHT22;11516;51.612;7.510;2022-09-09T09:34:00;19.90;99.90
22698;DHT22;11516;51.612;7.510;2022-09-09T09:36:57;20.00;99.90
22698;DHT22;11516;51.612;7.510;2022-09-09T09:39:50;20.00;99.90
22698;DHT22;11516;51.612;7.510;2022-09-09T09:44:56;20.10;99.90
22698;DHT22;11516;51.612;7.510;2022-09-09T09:47:32;20.10;99.90
22698;DHT22;11516;51.612;7.510;2022-09-09T09:50:00;20.20;99.90
22698;DHT22;11516;51.612;7.510;2022-09-09T09:52:31;20.30;99.90
22698;DHT22;11516;51.612;7.510;2022-09-09T09:55:03;20.20;99.90
22698;DHT22;11516;51.612;7.510;2022-09-09T09:57:33;20.20;99.90
22698;DHT22;11516;51.612;7.510;2022-09-09T10:00:17;20.20;99.90
22698;DHT22;11516;51.612;7.510;2022-09-09T10:02:44;20.30;99.90
22698;DHT22;11516;51.612;7.510;2022-09-09T10:05:21;20.20;99.90
22698;DHT22;11516;51.612;7.510;2022-09-09T10:08:02;20.20;99.90
22698;DHT22;11516;51.612;7.510;2022-09-09T10:13:31;20.50;99.90
22698;DHT22;11516;51.612;7.510;2022-09-09T10:19:09;20.90;99.90
22698;DHT22;11516;51.612;7.510;2022-09-09T10:24:41;20.80;99.90
22698;DHT22;11516;51.612;7.510;2022-09-09T10:30:23;21.10;99.90
22698;DHT22;11516;51.612;7.510;2022-09-09T10:33:10;21.10;99.90
22698;DHT22;11516;51.612;7.510;2022-09-09T10:35:54;21.00;99.90
22698;DHT22;11516;51.612;7.510;2022-09-09T10:38:40;20.90;99.90
22698;DHT22;11516;51.612;7.510;2022-09-09T10:50:25;21.50;99.90
22698;DHT22;11516;51.612;7.510;2022-09-09T10:55:43;21.30;99.90
22698;DHT22;11516;51.612;7.510;2022-09-09T11:03:54;21.40;99.90
22698;DHT22;11516;51.612;7.510;2022-09-09T11:06:25;21.30;99.90
22698;DHT22;11516;51.612;7.510;2022-09-09T11:09:04;21.10;99.90
22698;DHT22;11516;51.612;7.510;2022-09-09T11:11:42;21.40;99.90
22698;DHT22;11516;51.612;7.510;2022-09-09T11:14:23;21.30;99.90
22698;DHT22;11516;51.612;7.510;2022-09-09T11:17:03;21.40;99.90
22698;DHT22;11516;51.612;7.510;2022-09-09T11:19:39;21.60;99.40
22698;DHT22;11516;51.612;7.510;2022-09-09T11:25:02;21.80;98.40
22698;DHT22;11516;51.612;7.510;2022-09-09T11:27:54;22.40;96.70
22698;DHT22;11516;51.612;7.510;2022-09-09T11:39:18;23.90;91.30
22698;DHT22;11516;51.612;7.510;2022-09-09T11:41:49;23.70;91.90
22698;DHT22;11516;51.612;7.510;2022-09-09T11:44:28;24.20;91.10
22698;DHT22;11516;51.612;7.510;2022-09-09T11:46:55;24.40;90.00
22698;DHT22;11516;51.612;7.510;2022-09-09T11:49:29;24.10;90.30
22698;DHT22;11516;51.612;7.510;2022-09-09T11:52:38;24.30;90.60
22698;DHT22;11516;51.612;7.510;2022-09-09T11:55:33;24.00;90.20
22698;DHT22;11516;51.612;7.510;2022-09-09T11:58:01;23.50;90.60
22698;DHT22;11516;51.612;7.510;2022-09-09T12:00:48;23.30;91.40
22698;DHT22;11516;51.612;7.510;2022-09-09T12:06:09;23.20;90.20
22698;DHT22;11516;51.612;7.510;2022-09-09T12:08:37;23.10;91.20
22698;DHT22;11516;51.612;7.510;2022-09-09T12:11:07;22.90;91.50
22698;DHT22;11516;51.612;7.510;2022-09-09T12:13:33;23.10;91.40
22698;DHT22;11516;51.612;7.510;2022-09-09T12:15:59;23.10;91.50
22698;DHT22;11516;51.612;7.510;2022-09-09T12:18:38;22.90;92.30
22698;DHT22;11516;51.612;7.510;2022-09-09T12:24:11;22.20;92.70
22698;DHT22;11516;51.612;7.510;2022-09-09T12:29:30;21.80;93.60
22698;DHT22;11516;51.612;7.510;2022-09-09T12:32:10;21.70;93.80
22698;DHT22;11516;51.612;7.510;2022-09-09T12:37:29;21.40;94.40
22698;DHT22;11516;51.612;7.510;2022-09-09T12:42:28;21.30;94.90
22698;DHT22;11516;51.612;7.510;2022-09-09T12:45:02;21.10;95.20
22698;DHT22;11516;51.612;7.510;2022-09-09T12:48:01;21.10;95.90
22698;DHT22;11516;51.612;7.510;2022-09-09T12:50:43;21.40;96.30
22698;DHT22;11516;51.612;7.510;2022-09-09T12:53:21;21.30;96.70
22698;DHT22;11516;51.612;7.510;2022-09-09T12:56:07;21.10;97.60
22698;DHT22;11516;51.612;7.510;2022-09-09T12:58:39;20.90;98.70
22698;DHT22;11516;51.612;7.510;2022-09-09T13:01:23;20.80;99.90
22698;DHT22;11516;51.612;7.510;2022-09-09T13:03:52;20.50;99.90
22698;DHT22;11516;51.612;7.510;2022-09-09T13:06:26;21.00;99.90
22698;DHT22;11516;51.612;7.510;2022-09-09T13:08:53;21.40;99.90
22698;DHT22;11516;51.612;7.510;2022-09-09T13:11:23;21.30;99.90
22698;DHT22;11516;51.612;7.510;2022-09-09T13:13:52;21.40;99.90
22698;DHT22;11516;51.612;7.510;2022-09-09T13:16:20;21.20;99.90
22698;DHT22;11516;51.612;7.510;2022-09-09T13:18:47;21.10;99.90
22698;DHT22;11516;51.612;7.510;2022-09-09T13:21:13;21.10;99.90
22698;DHT22;11516;51.612;7.510;2022-09-09T13:23:39;21.00;99.90
22698;DHT22;11516;51.612;7.510;2022-09-09T13:26:23;20.70;99.90
22698;DHT22;11516;51.612;7.510;2022-09-09T13:28:49;20.80;99.90
22698;DHT22;11516;51.612;7.510;2022-09-09T13:31:36;20.70;99.90
22698;DHT22;11516;51.612;7.510;2022-09-09T13:34:33;20.60;99.90
22698;DHT22;11516;51.612;7.510;2022-09-09T13:37:14;20.50;99.90
22698;DHT22;11516;51.612;7.510;2022-09-09T13:39:51;20.80;99.90
22698;DHT22;11516;51.612;7.510;2022-09-09T13:42:32;21.60;99.90
22698;DHT22;11516;51.612;7.510;2022-09-09T13:45:00;22.50;99.90
22698;DHT22;11516;51.612;7.510;2022-09-09T13:47:36;22.60;99.90
22698;DHT22;11516;51.612;7.510;2022-09-09T13:52:51;22.00;99.90
22698;DHT22;11516;51.612;7.510;2022-09-09T13:55:19;22.00;99.90
22698;DHT22;11516;51.612;7.510;2022-09-09T13:58:00;22.10;99.90
22698;DHT22;11516;51.612;7.510;2022-09-09T14:00:29;21.30;99.90
22698;DHT22;11516;51.612;7.510;2022-09-09T14:02:55;21.40;99.90
22698;DHT22;11516;51.612;7.510;2022-09-09T14:05:22;21.40;99.90
22698;DHT22;11516;51.612;7.510;2022-09-09T14:07:48;21.20;99.90
22698;DHT22;11516;51.612;7.510;2022-09-09T14:10:14;21.00;99.90
22698;DHT22;11516;51.612;7.510;2022-09-09T14:12:40;20.90;99.90
22698;DHT22;11516;51.612;7.510;2022-09-09T14:15:07;20.80;99.90
22698;DHT22;11516;51.612;7.510;2022-09-09T14:17:34;20.80;99.90
22698;DHT22;11516;51.612;7.510;2022-09-09T14:20:04;20.70;99.90
22698;DHT22;11516;51.612;7.510;2022-09-09T14:22:34;20.70;99.90
22698;DHT22;11516;51.612;7.510;2022-09-09T14:25:00;20.50;99.90
22698;DHT22;11516;51.612;7.510;2022-09-09T14:27:28;20.40;99.90
22698;DHT22;11516;51.612;7.510;2022-09-09T14:29:55;19.70;99.90
22698;DHT22;11516;51.612;7.510;2022-09-09T14:32:23;19.10;99.90
22698;DHT22;11516;51.612;7.510;2022-09-09T14:34:48;18.80;99.90
22698;DHT22;11516;51.612;7.510;2022-09-09T14:37:15;18.70;99.90
22698;DHT22;11516;51.612;7.510;2022-09-09T14:39:41;18.70;99.90
22698;DHT22;11516;51.612;7.510;2022-09-09T14:42:10;18.70;99.90
22698;DHT22;11516;51.612;7.510;2022-09-09T14:44:36;19.00;99.90
22698;DHT22;11516;51.612;7.510;2022-09-09T14:47:06;19.20;99.90
22698;DHT22;11516;51.612;7.510;2022-09-09T14:49:35;19.60;99.90
22698;DHT22;11516;51.612;7.510;2022-09-09T14:52:01;19.90;99.90
22698;DHT22;11516;51.612;7.510;2022-09-09T14:54:27;20.50;99.90
22698;DHT22;11516;51.612;7.510;2022-09-09T14:56:53;21.00;99.90
22698;DHT22;11516;51.612;7.510;2022-09-09T14:59:19;21.30;99.90
22698;DHT22;11516;51.612;7.510;2022-09-09T15:01:45;21.20;99.90
22698;DHT22;11516;51.612;7.510;2022-09-09T15:04:12;20.70;99.90
22698;DHT22;11516;51.612;7.510;2022-09-09T15:06:38;20.50;99.90
22698;DHT22;11516;51.612;7.510;2022-09-09T15:09:04;20.40;99.90
22698;DHT22;11516;51.612;7.510;2022-09-09T15:11:33;20.30;99.90
22698;DHT22;11516;51.612;7.510;2022-09-09T15:14:03;20.40;99.90
22698;DHT22;11516;51.612;7.510;2022-09-09T15:16:28;20.20;99.90
22698;DHT22;11516;51.612;7.510;2022-09-09T15:18:57;20.10;99.90
22698;DHT22;11516;51.612;7.510;2022-09-09T15:21:25;20.00;99.90
22698;DHT22;11516;51.612;7.510;2022-09-09T15:23:55;20.00;99.90
22698;DHT22;11516;51.612;7.510;2022-09-09T15:26:21;19.90;99.90
22698;DHT22;11516;51.612;7.510;2022-09-09T15:28:48;19.70;99.90
22698;DHT22;11516;51.612;7.510;2022-09-09T15:31:27;19.30;99.90
22698;DHT22;11516;51.612;7.510;2022-09-09T15:33:59;19.20;99.90
22698;DHT22;11516;51.612;7.510;2022-09-09T15:36:42;19.20;99.90
22698;DHT22;11516;51.612;7.510;2022-09-09T15:39:09;19.30;99.90
22698;DHT22;11516;51.612;7.510;2022-09-09T15:41:38;19.20;99.90
22698;DHT22;11516;51.612;7.510;2022-09-09T15:44:04;19.00;99.90
22698;DHT22;11516;51.612;7.510;2022-09-09T15:46:35;19.00;99.90
22698;DHT22;11516;51.612;7.510;2022-09-09T15:51:50;19.00;99.90
22698;DHT22;11516;51.612;7.510;2022-09-09T15:54:20;18.90;99.90
22698;DHT22;11516;51.612;7.510;2022-09-09T15:56:56;18.00;99.90
22698;DHT22;11516;51.612;7.510;2022-09-09T15:59:23;16.20;99.90
22698;DHT22;11516;51.612;7.510;2022-09-09T16:01:49;15.30;99.90
22698;DHT22;11516;51.612;7.510;2022-09-09T16:04:18;15.10;99.90
22698;DHT22;11516;51.612;7.510;2022-09-09T16:07:02;15.10;99.90
22698;DHT22;11516;51.612;7.510;2022-09-09T16:09:29;15.30;99.90
22698;DHT22;11516;51.612;7.510;2022-09-09T16:11:59;15.40;99.90
22698;DHT22;11516;51.612;7.510;2022-09-09T16:14:26;15.60;99.90
22698;DHT22;11516;51.612;7.510;2022-09-09T16:16:52;15.80;99.90
22698;DHT22;11516;51.612;7.510;2022-09-09T16:19:17;15.80;99.90
22698;DHT22;11516;51.612;7.510;2022-09-09T16:21:46;15.80;99.90
22698;DHT22;11516;51.612;7.510;2022-09-09T16:24:15;15.90;99.90
22698;DHT22;11516;51.612;7.510;2022-09-09T16:26:43;16.00;99.90
22698;DHT22;11516;51.612;7.510;2022-09-09T16:29:13;16.10;99.90
22698;DHT22;11516;51.612;7.510;2022-09-09T16:31:40;16.10;99.90
22698;DHT22;11516;51.612;7.510;2022-09-09T16:34:06;16.00;99.90
22698;DHT22;11516;51.612;7.510;2022-09-09T16:36:33;16.00;99.90
22698;DHT22;11516;51.612;7.510;2022-09-09T16:39:07;16.00;99.90
22698;DHT22;11516;51.612;7.510;2022-09-09T16:41:34;16.00;99.90
22698;DHT22;11516;51.612;7.510;2022-09-09T16:44:02;16.00;99.90
22698;DHT22;11516;51.612;7.510;2022-09-09T16:46:30;16.10;99.90
22698;DHT22;11516;51.612;7.510;2022-09-09T16:48:57;16.20;99.90
22698;DHT22;11516;51.612;7.510;2022-09-09T16:51:31;16.20;99.90
22698;DHT22;11516;51.612;7.510;2022-09-09T16:54:00;16.30;99.90
22698;DHT22;11516;51.612;7.510;2022-09-09T16:56:29;16.30;99.90
22698;DHT22;11516;51.612;7.510;2022-09-09T16:58:57;16.30;99.90
22698;DHT22;11516;51.612;7.510;2022-09-09T17:01:27;16.30;99.90
22698;DHT22;11516;51.612;7.510;2022-09-09T17:03:58;16.30;99.90
22698;DHT22;11516;51.612;7.510;2022-09-09T17:06:24;16.40;99.90
22698;DHT22;11516;51.612;7.510;2022-09-09T17:08:55;16.50;99.90
22698;DHT22;11516;51.612;7.510;2022-09-09T17:11:20;16.30;99.90
22698;DHT22;11516;51.612;7.510;2022-09-09T17:13:47;16.30;99.90
22698;DHT22;11516;51.612;7.510;2022-09-09T17:16:15;16.30;99.90
22698;DHT22;11516;51.612;7.510;2022-09-09T17:18:41;16.10;99.90
22698;DHT22;11516;51.612;7.510;2022-09-09T17:21:13;16.00;99.90
22698;DHT22;11516;51.612;7.510;2022-09-09T17:23:40;16.00;99.90
22698;DHT22;11516;51.612;7.510;2022-09-09T17:26:08;16.00;99.90
22698;DHT22;11516;51.612;7.510;2022-09-09T17:28:38;16.00;99.90
22698;DHT22;11516;51.612;7.510;2022-09-09T17:31:06;16.00;99.90
22698;DHT22;11516;51.612;7.510;2022-09-09T17:33:37;16.00;99.90
22698;DHT22;11516;51.612;7.510;2022-09-09T17:36:07;16.00;99.90
22698;DHT22;11516;51.612;7.510;2022-09-09T17:38:33;15.90;99.90
22698;DHT22;11516;51.612;7.510;2022-09-09T17:41:05;15.90;99.90
22698;DHT22;11516;51.612;7.510;2022-09-09T17:43:31;16.00;99.90
22698;DHT22;11516;51.612;7.510;2022-09-09T17:46:05;16.00;99.90
22698;DHT22;11516;51.612;7.510;2022-09-09T17:48:31;16.00;99.90
22698;DHT22;11516;51.612;7.510;2022-09-09T17:50:58;16.00;99.90
22698;DHT22;11516;51.612;7.510;2022-09-09T17:53:24;16.00;99.90
22698;DHT22;11516;51.612;7.510;2022-09-09T17:55:50;15.90;99.90
22698;DHT22;11516;51.612;7.510;2022-09-09T17:58:16;16.00;99.90
22698;DHT22;11516;51.612;7.510;2022-09-09T18:00:41;16.10;99.90
22698;DHT22;11516;51.612;7.510;2022-09-09T18:03:07;16.00;99.90